createdAt,value
2023-07-04T00:01:22.353Z,65.71
2023-07-04T00:03:53.657Z,65.39
2023-07-04T00:06:22.997Z,65.84
2023-07-04T00:08:52.127Z,65.90
2023-07-04T00:11:21.657Z,65.95
2023-07-04T00:13:52.282Z,65.83
2023-07-04T00:16:21.578Z,66.18
2023-07-04T00:18:50.177Z,66.43
2023-07-04T00:21:20.110Z,66.71
2023-07-04T00:23:53.665Z,66.86
2023-07-04T00:26:24.396Z,66.95
2023-07-04T00:28:54.469Z,67.02
2023-07-04T00:31:26.211Z,66.91
2023-07-04T00:33:55.443Z,66.71
2023-07-04T00:36:24.184Z,66.38
2023-07-04T00:38:58.289Z,66.16
2023-07-04T00:41:29.214Z,65.92
2023-07-04T00:44:10.602Z,65.21
2023-07-04T00:46:42.922Z,65.01
2023-07-04T00:49:24.135Z,64.98
2023-07-04T00:52:04.597Z,64.57
2023-07-04T00:54:37.413Z,64.26
2023-07-04T00:57:07.814Z,64.31
2023-07-04T00:59:44.826Z,64.19
2023-07-04T01:02:16.766Z,64.34
2023-07-04T01:04:46.039Z,64.33
2023-07-04T01:07:27.313Z,64.31
2023-07-04T01:09:59.390Z,63.95
2023-07-04T01:12:31.256Z,63.75
2023-07-04T01:15:02.090Z,63.56
2023-07-04T01:17:31.368Z,63.75
2023-07-04T01:20:01.064Z,64.04
2023-07-04T01:22:38.079Z,63.47
2023-07-04T01:25:13.379Z,64.58
2023-07-04T01:27:45.611Z,64.39
2023-07-04T01:30:15.013Z,64.39
2023-07-04T01:32:44.413Z,64.47
2023-07-04T01:35:14.807Z,64.68
2023-07-04T01:37:43.060Z,64.23
2023-07-04T01:40:13.847Z,63.81
2023-07-04T01:42:44.019Z,62.75
2023-07-04T01:45:12.716Z,62.85
2023-07-04T01:47:41.388Z,63.24
2023-07-04T01:50:12.312Z,64.04
2023-07-04T01:52:42.210Z,64.29
2023-07-04T01:55:11.799Z,64.29
2023-07-04T01:57:40.435Z,64.94
2023-07-04T02:00:11.869Z,64.67
2023-07-04T02:02:58.920Z,65.11
2023-07-04T02:05:27.903Z,65.32
2023-07-04T02:07:56.026Z,65.25
2023-07-04T02:10:24.215Z,64.96
2023-07-04T02:12:52.438Z,65.31
2023-07-04T02:15:23.567Z,65.35
2023-07-04T02:17:52.056Z,65.41
2023-07-04T02:20:21.865Z,65.38
2023-07-04T02:22:50.011Z,65.46
2023-07-04T02:25:18.224Z,65.23
2023-07-04T02:27:46.719Z,65.39
2023-07-04T02:30:15.364Z,65.28
2023-07-04T02:32:44.836Z,65.33
2023-07-04T02:35:15.446Z,65.22
2023-07-04T02:37:44.700Z,65.17
2023-07-04T02:40:13.846Z,65.65
2023-07-04T02:42:42.201Z,65.66
2023-07-04T02:45:11.652Z,65.57
2023-07-04T02:47:40.286Z,65.46
2023-07-04T02:50:13.722Z,65.16
2023-07-04T02:52:43.107Z,65.03
2023-07-04T02:55:11.149Z,64.80
2023-07-04T02:57:39.281Z,64.83
2023-07-04T03:00:08.988Z,64.97
2023-07-04T03:02:38.392Z,64.94
2023-07-04T03:05:08.506Z,65.46
2023-07-04T03:07:39.143Z,65.64
2023-07-04T03:10:09.652Z,65.47
2023-07-04T03:12:37.812Z,65.63
2023-07-04T03:15:08.228Z,65.81
2023-07-04T03:17:41.545Z,66.03
2023-07-04T03:20:11.582Z,65.80
2023-07-04T03:22:43.426Z,65.59
2023-07-04T03:25:13.038Z,65.38
2023-07-04T03:27:42.403Z,64.78
2023-07-04T03:30:14.312Z,63.39
2023-07-04T03:32:45.279Z,63.62
2023-07-04T03:35:13.501Z,64.23
2023-07-04T03:37:45.734Z,63.98
2023-07-04T03:40:15.253Z,64.17
2023-07-04T03:42:43.828Z,64.67
2023-07-04T03:45:12.867Z,64.48
2023-07-04T03:47:41.400Z,64.04
2023-07-04T03:50:14.424Z,63.77
2023-07-04T03:52:46.709Z,63.61
2023-07-04T03:55:15.804Z,62.97
2023-07-04T03:57:43.768Z,62.88
2023-07-04T04:00:14.020Z,62.74
2023-07-04T04:02:57.160Z,62.23
2023-07-04T04:05:25.581Z,61.17
2023-07-04T04:07:55.141Z,61.31
2023-07-04T04:10:23.690Z,61.29
2023-07-04T04:12:51.851Z,61.18
2023-07-04T04:15:20.274Z,60.50
2023-07-04T04:17:49.270Z,60.86
2023-07-04T04:20:17.498Z,60.69
2023-07-04T04:22:46.752Z,60.58
2023-07-04T04:25:18.200Z,59.79
2023-07-04T04:27:48.230Z,59.52
2023-07-04T04:30:16.947Z,59.43
2023-07-04T04:32:46.493Z,59.91
2023-07-04T04:35:16.162Z,58.03
2023-07-04T04:37:44.288Z,58.16
2023-07-04T04:40:13.273Z,58.15
2023-07-04T04:42:45.152Z,57.29
2023-07-04T04:45:15.550Z,56.68
2023-07-04T04:47:49.960Z,57.14
2023-07-04T04:50:18.560Z,56.94
2023-07-04T04:52:46.969Z,55.07
2023-07-04T04:55:15.260Z,56.69
2023-07-04T04:57:45.011Z,56.40
2023-07-04T05:00:14.311Z,57.15
2023-07-04T05:02:42.328Z,55.04
2023-07-04T05:05:10.802Z,56.48
2023-07-04T05:07:38.869Z,54.44
2023-07-04T05:10:07.851Z,54.09
2023-07-04T05:12:36.511Z,53.39
2023-07-04T05:15:07.606Z,54.56
2023-07-04T05:17:36.117Z,54.15
2023-07-04T05:20:06.471Z,53.71
2023-07-04T05:22:35.557Z,54.04
2023-07-04T05:25:03.512Z,52.79
2023-07-04T05:27:31.733Z,52.86
2023-07-04T05:29:59.867Z,52.97
2023-07-04T05:32:29.292Z,53.70
2023-07-04T05:34:57.536Z,52.87
2023-07-04T05:37:25.804Z,52.87
2023-07-04T05:39:54.040Z,52.55
2023-07-04T05:42:22.266Z,51.29
2023-07-04T05:44:50.525Z,51.65
2023-07-04T05:47:18.880Z,52.52
2023-07-04T05:49:48.414Z,51.76
2023-07-04T05:52:16.729Z,51.53
2023-07-04T05:54:44.874Z,52.56
2023-07-04T05:57:14.280Z,52.56
2023-07-04T05:59:42.269Z,52.19
2023-07-04T06:02:10.415Z,51.72
2023-07-04T06:04:38.692Z,52.22
2023-07-04T06:07:08.449Z,51.42
2023-07-04T06:09:36.428Z,52.17
2023-07-04T06:12:05.084Z,52.28
2023-07-04T06:14:33.271Z,51.28
2023-07-04T06:17:03.507Z,52.22
2023-07-04T06:19:31.528Z,52.68
2023-07-04T06:21:59.712Z,52.63
2023-07-04T06:24:29.066Z,51.95
2023-07-04T06:26:57.280Z,52.63
2023-07-04T06:29:25.691Z,51.97
2023-07-04T06:31:53.899Z,51.56
2023-07-04T06:34:22.014Z,51.97
2023-07-04T06:36:51.336Z,50.68
2023-07-04T06:39:19.580Z,51.32
2023-07-04T06:41:50.727Z,51.67
2023-07-04T06:44:21.824Z,52.08
2023-07-04T06:46:50.141Z,51.28
2023-07-04T06:49:18.324Z,51.20
2023-07-04T06:51:46.453Z,51.80
2023-07-04T06:56:43.756Z,48.66
2023-07-04T06:59:13.274Z,44.74
2023-07-04T07:01:42.789Z,42.55
2023-07-04T07:04:13.185Z,41.65
2023-07-04T07:06:41.510Z,40.84
2023-07-04T07:09:09.667Z,40.82
2023-07-04T07:11:37.921Z,41.03
2023-07-04T07:14:06.875Z,39.71
2023-07-04T07:16:36.519Z,39.64
2023-07-04T07:19:04.679Z,38.17
2023-07-04T07:21:32.901Z,37.21
2023-07-04T07:24:03.530Z,36.89
2023-07-04T07:26:31.894Z,38.19
2023-07-04T07:29:00.156Z,39.17
2023-07-04T07:31:33.538Z,39.62
2023-07-04T07:34:05.977Z,40.06
2023-07-04T07:36:39.005Z,39.05
2023-07-04T07:39:09.736Z,40.76
2023-07-04T07:41:40.374Z,41.31
2023-07-04T07:44:09.912Z,40.69
2023-07-04T07:46:38.688Z,40.27
2023-07-04T07:49:09.487Z,39.94
2023-07-04T07:51:39.532Z,42.17
2023-07-04T07:54:08.886Z,44.00
2023-07-04T07:56:42.533Z,43.58
2023-07-04T07:59:11.122Z,43.14
2023-07-04T08:01:39.669Z,43.58
2023-07-04T08:04:11.649Z,41.49
2023-07-04T08:06:44.320Z,42.38
2023-07-04T08:09:14.905Z,39.66
2023-07-04T08:11:44.863Z,40.69
2023-07-04T08:14:13.047Z,37.43
2023-07-04T08:16:46.580Z,35.74
2023-07-04T08:19:18.114Z,38.91
2023-07-04T08:21:47.130Z,41.46
2023-07-04T08:24:16.477Z,37.88
2023-07-04T08:26:47.087Z,35.44
2023-07-04T08:29:16.260Z,34.29
2023-07-04T08:31:44.707Z,37.64
2023-07-04T08:34:13.341Z,38.75
2023-07-04T08:36:45.475Z,38.81
2023-07-04T08:39:13.904Z,38.53
2023-07-04T08:41:47.982Z,37.79
2023-07-04T08:44:19.562Z,36.07
2023-07-04T08:46:49.912Z,36.43
2023-07-04T08:49:27.096Z,35.46
2023-07-04T08:52:03.688Z,34.43
2023-07-04T08:54:33.044Z,34.75
2023-07-04T08:57:05.735Z,32.94
2023-07-04T08:59:42.956Z,33.78
2023-07-04T09:02:26.010Z,34.85
2023-07-04T09:05:01.282Z,32.69
2023-07-04T09:07:37.319Z,31.03
2023-07-04T09:10:17.424Z,32.61
2023-07-04T09:12:46.303Z,34.37
2023-07-04T09:15:24.396Z,34.00
2023-07-04T09:18:12.244Z,34.33
2023-07-04T09:20:52.298Z,37.69
2023-07-04T09:23:24.133Z,37.71
2023-07-04T09:25:58.379Z,37.03
2023-07-04T09:28:27.701Z,35.95
2023-07-04T09:30:59.556Z,33.13
2023-07-04T09:33:29.622Z,32.69
2023-07-04T09:35:59.093Z,32.36
2023-07-04T09:38:28.772Z,31.19
2023-07-04T09:41:10.855Z,33.16
2023-07-04T09:44:29.056Z,34.59
2023-07-04T09:47:00.767Z,36.81
2023-07-04T09:49:31.974Z,37.23
2023-07-04T09:52:03.007Z,38.73
2023-07-04T09:54:38.046Z,35.83
2023-07-04T09:57:22.343Z,33.78
2023-07-04T09:59:52.498Z,33.99
2023-07-04T10:02:34.727Z,33.00
2023-07-04T10:05:05.301Z,32.92
2023-07-04T10:07:34.104Z,33.35
2023-07-04T10:10:08.679Z,34.74
2023-07-04T10:12:44.613Z,34.10
2023-07-04T10:15:21.099Z,32.38
2023-07-04T10:17:49.386Z,34.63
2023-07-04T10:20:17.625Z,35.20
2023-07-04T10:22:52.638Z,33.92
2023-07-04T10:25:24.245Z,33.66
2023-07-04T10:27:56.428Z,32.81
2023-07-04T10:30:31.147Z,33.56
2023-07-04T10:33:06.105Z,34.35
2023-07-04T10:35:37.309Z,33.27
2023-07-04T10:38:11.195Z,34.58
2023-07-04T10:40:42.221Z,35.33
2023-07-04T10:43:14.625Z,34.11
2023-07-04T10:45:52.231Z,34.35
2023-07-04T10:48:33.273Z,33.81
2023-07-04T10:51:06.443Z,34.13
2023-07-04T10:53:34.707Z,33.00
2023-07-04T10:56:09.958Z,34.11
2023-07-04T10:58:43.432Z,33.98
2023-07-04T11:01:15.828Z,32.21
2023-07-04T11:03:48.965Z,34.87
2023-07-04T11:06:21.347Z,34.96
2023-07-04T11:08:51.727Z,34.46
2023-07-04T11:11:30.213Z,34.80
2023-07-04T11:14:04.444Z,33.79
2023-07-04T11:16:34.599Z,34.02
2023-07-04T11:19:07.136Z,34.69
2023-07-04T11:21:35.964Z,34.63
2023-07-04T11:24:16.637Z,34.91
2023-07-04T11:26:53.216Z,33.94
2023-07-04T11:29:24.685Z,34.19
2023-07-04T11:32:17.935Z,34.20
2023-07-04T11:34:49.256Z,34.77
2023-07-04T11:37:25.188Z,32.75
2023-07-04T11:39:57.321Z,33.47
2023-07-04T11:42:39.720Z,33.34
2023-07-04T11:45:10.236Z,32.85
2023-07-04T11:47:45.136Z,35.16
2023-07-04T11:50:17.627Z,35.05
2023-07-04T11:52:55.134Z,34.11
2023-07-04T11:55:27.456Z,34.30
2023-07-04T11:58:20.168Z,33.44
2023-07-04T12:01:06.221Z,33.53
2023-07-04T12:03:56.231Z,33.39
2023-07-04T12:07:01.153Z,34.35
2023-07-04T12:12:08.695Z,33.18
2023-07-04T12:14:40.241Z,34.25
2023-07-04T12:17:09.132Z,30.36
2023-07-04T12:19:37.138Z,32.63
2023-07-04T12:22:05.540Z,33.04
2023-07-04T12:24:33.596Z,31.28
2023-07-04T12:27:03.324Z,33.55
2023-07-04T12:32:09.523Z,32.04
2023-07-04T12:37:15.827Z,32.05
2023-07-04T12:39:47.274Z,31.19
2023-07-04T12:42:21.849Z,30.18
2023-07-04T12:44:50.346Z,30.32
2023-07-04T12:47:25.879Z,28.55
2023-07-04T12:49:57.404Z,29.53
2023-07-04T12:52:33.940Z,30.62
2023-07-04T12:55:03.803Z,30.05
2023-07-04T12:57:33.479Z,29.43
2023-07-04T13:00:27.781Z,30.49
2023-07-04T13:02:59.313Z,31.92
2023-07-04T13:05:40.635Z,30.68
2023-07-04T13:08:12.872Z,31.48
2023-07-04T13:10:41.809Z,32.38
2023-07-04T13:13:31.612Z,30.71
2023-07-04T13:16:15.413Z,31.03
2023-07-04T13:18:46.485Z,30.36
2023-07-04T13:21:28.005Z,29.43
2023-07-04T13:26:30.651Z,30.31
2023-07-04T13:34:18.721Z,31.63
2023-07-04T13:36:49.799Z,31.74
2023-07-04T13:41:52.984Z,30.77
2023-07-04T13:46:55.111Z,30.83
2023-07-04T13:49:25.195Z,30.92
2023-07-04T13:51:54.254Z,31.28
2023-07-04T13:54:23.018Z,31.32
2023-07-04T13:56:51.182Z,30.69
2023-07-04T13:59:19.597Z,32.35
2023-07-04T14:06:53.326Z,32.63
2023-07-04T14:09:23.014Z,32.81
2023-07-04T14:11:51.280Z,31.19
2023-07-04T14:21:54.999Z,30.28
2023-07-04T14:24:23.159Z,30.80
2023-07-04T14:26:51.342Z,30.42
2023-07-04T14:29:19.412Z,30.90
2023-07-04T14:31:47.628Z,28.72
2023-07-04T14:34:16.203Z,29.26
2023-07-04T14:36:44.327Z,29.55
2023-07-04T14:39:14.530Z,29.80
2023-07-04T14:44:13.534Z,29.92
2023-07-04T14:46:41.883Z,30.02
2023-07-04T14:49:10.223Z,29.80
2023-07-04T14:51:38.328Z,30.54
2023-07-04T14:54:06.694Z,30.29
2023-07-04T14:56:45.517Z,29.57
2023-07-04T14:59:18.843Z,29.56
2023-07-04T15:01:46.923Z,29.76
2023-07-04T15:04:15.112Z,29.85
2023-07-04T15:06:43.452Z,28.80
2023-07-04T15:09:11.850Z,29.06
2023-07-04T15:11:41.358Z,28.66
2023-07-04T15:14:09.421Z,30.10
2023-07-04T15:16:37.663Z,30.39
2023-07-04T15:19:06.447Z,29.87
2023-07-04T15:21:34.543Z,31.04
2023-07-04T15:24:03.666Z,30.79
2023-07-04T15:26:31.804Z,30.59
2023-07-04T15:29:01.343Z,31.97
2023-07-04T15:31:30.100Z,32.47
2023-07-04T15:33:59.368Z,30.58
2023-07-04T15:36:28.769Z,31.99
2023-07-04T15:38:57.251Z,30.66
2023-07-04T15:41:27.204Z,30.38
2023-07-04T15:43:56.085Z,30.30
2023-07-04T15:46:27.420Z,30.41
2023-07-04T15:48:56.374Z,30.94
2023-07-04T15:51:26.619Z,32.39
2023-07-04T15:53:55.033Z,32.44
2023-07-04T15:56:28.321Z,30.41
2023-07-04T15:58:57.349Z,30.63
2023-07-04T16:01:26.867Z,30.43
2023-07-04T16:03:58.468Z,31.09
2023-07-04T16:06:27.286Z,30.27
2023-07-04T16:08:56.030Z,30.94
2023-07-04T16:11:24.604Z,31.06
2023-07-04T16:13:52.867Z,31.36
2023-07-04T16:16:23.443Z,30.62
2023-07-04T16:18:53.508Z,30.05
2023-07-04T16:21:25.300Z,30.68
2023-07-04T16:23:53.941Z,31.13
2023-07-04T16:26:24.025Z,30.91
2023-07-04T16:28:53.130Z,31.61
2023-07-04T16:31:21.321Z,32.25
2023-07-04T16:33:50.288Z,32.91
2023-07-04T16:36:20.735Z,33.17
2023-07-04T16:38:48.851Z,31.84
2023-07-04T16:41:17.217Z,32.19
2023-07-04T16:43:45.352Z,31.94
2023-07-04T16:46:15.088Z,31.99
2023-07-04T16:48:43.283Z,31.98
2023-07-04T16:51:11.552Z,32.67
2023-07-04T16:53:41.243Z,31.95
2023-07-04T16:56:09.816Z,31.72
2023-07-04T16:58:38.727Z,32.14
2023-07-04T17:01:07.740Z,31.34
2023-07-04T17:03:36.373Z,31.87
2023-07-04T17:06:06.787Z,32.93
2023-07-04T17:08:37.689Z,33.14
2023-07-04T17:11:09.819Z,32.54
2023-07-04T17:13:40.244Z,31.94
2023-07-04T17:16:09.913Z,33.06
2023-07-04T17:18:38.968Z,34.11
2023-07-04T17:21:08.300Z,32.37
2023-07-04T17:23:36.737Z,34.32
2023-07-04T17:26:06.048Z,33.44
2023-07-04T17:28:35.705Z,32.93
2023-07-04T17:31:06.272Z,33.11
2023-07-04T17:33:34.776Z,32.90
2023-07-04T17:36:04.916Z,33.54
2023-07-04T17:38:34.770Z,33.23
2023-07-04T17:41:07.543Z,34.66
2023-07-04T17:43:37.530Z,35.25
2023-07-04T17:46:08.037Z,36.43
2023-07-04T17:48:37.062Z,36.44
2023-07-04T17:51:06.507Z,35.20
2023-07-04T17:53:34.940Z,36.70
2023-07-04T17:56:06.118Z,36.61
2023-07-04T17:58:35.172Z,36.44
2023-07-04T18:01:08.118Z,38.37
2023-07-04T18:03:38.331Z,37.95
2023-07-04T18:06:08.461Z,39.74
2023-07-04T18:08:38.221Z,38.44
2023-07-04T18:11:07.808Z,39.33
2023-07-04T18:13:36.919Z,40.59
2023-07-04T18:16:07.125Z,38.22
2023-07-04T18:18:35.450Z,38.47
2023-07-04T18:21:06.185Z,41.28
2023-07-04T18:23:35.168Z,42.50
2023-07-04T18:26:03.875Z,43.43
2023-07-04T18:28:34.712Z,43.80
2023-07-04T18:31:10.423Z,45.65
2023-07-04T18:33:39.722Z,46.26
2023-07-04T18:36:12.182Z,47.12
2023-07-04T18:38:41.799Z,47.50
2023-07-04T18:41:12.934Z,48.22
2023-07-04T18:43:41.582Z,48.68
2023-07-04T18:46:11.741Z,49.13
2023-07-04T18:48:39.892Z,49.73
2023-07-04T18:51:12.331Z,49.39
2023-07-04T18:53:40.958Z,50.42
2023-07-04T18:56:09.981Z,50.15
2023-07-04T18:58:40.011Z,49.98
2023-07-04T19:01:14.670Z,48.66
2023-07-04T19:03:44.602Z,51.62
2023-07-04T19:06:15.269Z,52.75
2023-07-04T19:08:45.253Z,53.03
2023-07-04T19:11:15.041Z,52.84
2023-07-04T19:13:43.928Z,53.84
2023-07-04T19:16:13.355Z,53.91
2023-07-04T19:18:41.637Z,54.06
2023-07-04T19:21:10.143Z,54.85
2023-07-04T19:23:38.162Z,54.72
2023-07-04T19:26:10.635Z,55.39
2023-07-04T19:28:38.925Z,55.67
2023-07-04T19:31:07.435Z,55.58
2023-07-04T19:33:37.062Z,55.31
2023-07-04T19:36:05.276Z,55.36
2023-07-04T19:38:33.499Z,55.37
2023-07-04T19:41:03.290Z,55.82
2023-07-04T19:43:32.379Z,55.83
2023-07-04T19:46:01.860Z,56.13
2023-07-04T19:48:32.074Z,55.90
2023-07-04T19:51:07.207Z,56.71
2023-07-04T19:53:37.116Z,55.96
2023-07-04T19:56:07.734Z,56.79
2023-07-04T19:58:36.641Z,55.85
2023-07-04T20:01:07.440Z,54.34
2023-07-04T20:03:38.174Z,54.20
2023-07-04T20:06:10.235Z,54.58
2023-07-04T20:08:40.323Z,54.99
2023-07-04T20:11:08.844Z,55.31
2023-07-04T20:13:37.193Z,56.26
2023-07-04T20:16:09.965Z,56.67
2023-07-04T20:18:39.025Z,57.18
2023-07-04T20:21:08.897Z,57.10
2023-07-04T20:23:37.596Z,56.85
2023-07-04T20:26:07.586Z,56.93
2023-07-04T20:28:37.706Z,57.33
2023-07-04T20:31:06.498Z,57.84
2023-07-04T20:33:36.376Z,57.23
2023-07-04T20:36:05.825Z,57.65
2023-07-04T20:38:36.237Z,57.67
2023-07-04T20:41:05.949Z,58.73
2023-07-04T20:43:34.628Z,59.13
2023-07-04T20:46:03.424Z,58.77
2023-07-04T20:48:31.946Z,59.12
2023-07-04T20:51:05.437Z,59.02
2023-07-04T20:53:35.293Z,59.58
2023-07-04T20:56:03.862Z,59.50
2023-07-04T20:58:32.358Z,60.15
2023-07-04T21:01:00.524Z,60.51
2023-07-04T21:03:31.037Z,60.27
2023-07-04T21:06:03.825Z,60.39
2023-07-04T21:08:32.046Z,60.45
2023-07-04T21:11:04.852Z,60.15
2023-07-04T21:13:34.141Z,60.75
2023-07-04T21:16:04.968Z,61.16
2023-07-04T21:18:33.512Z,61.21
2023-07-04T21:21:26.822Z,61.49
2023-07-04T21:23:55.334Z,61.41
2023-07-04T21:26:24.984Z,61.93
2023-07-04T21:28:53.170Z,61.20
2023-07-04T21:31:21.287Z,60.54
2023-07-04T21:33:49.680Z,60.32
2023-07-04T21:36:17.778Z,59.53
2023-07-04T21:38:47.278Z,59.15
2023-07-04T21:41:17.481Z,59.31
2023-07-04T21:43:46.964Z,59.20
2023-07-04T21:46:15.054Z,59.61
2023-07-04T21:48:43.223Z,60.50
2023-07-04T21:51:11.303Z,61.14
2023-07-04T21:53:40.388Z,60.61
2023-07-04T21:56:08.660Z,60.99
2023-07-04T21:58:37.174Z,61.41
2023-07-04T22:01:08.233Z,61.78
2023-07-04T22:03:38.876Z,61.74
2023-07-04T22:06:09.128Z,61.95
2023-07-04T22:08:39.735Z,61.87
2023-07-04T22:11:10.323Z,62.08
2023-07-04T22:13:38.698Z,62.22
2023-07-04T22:16:10.190Z,62.06
2023-07-04T22:18:39.559Z,62.22
2023-07-04T22:21:09.856Z,62.68
2023-07-04T22:23:39.102Z,62.92
2023-07-04T22:26:08.262Z,63.32
2023-07-04T22:28:36.930Z,63.09
2023-07-04T22:31:07.396Z,62.45
2023-07-04T22:33:44.229Z,62.55
2023-07-04T22:36:12.743Z,62.74
2023-07-04T22:38:40.828Z,62.36
2023-07-04T22:41:09.103Z,62.76
2023-07-04T22:43:37.137Z,63.05
2023-07-04T22:46:05.217Z,62.95
2023-07-04T22:48:33.411Z,63.03
2023-07-04T22:51:04.975Z,62.84
2023-07-04T22:53:33.029Z,62.31
2023-07-04T22:56:05.813Z,62.54
2023-07-04T22:58:35.804Z,62.97
2023-07-04T23:01:11.217Z,63.57
2023-07-04T23:03:40.183Z,63.57
2023-07-04T23:06:11.365Z,63.99
2023-07-04T23:08:39.775Z,64.79
2023-07-04T23:11:07.872Z,64.29
2023-07-04T23:13:36.309Z,63.94
2023-07-04T23:23:15.260Z,63.94
2023-07-04T23:25:43.615Z,63.87
2023-07-04T23:28:11.784Z,64.43
2023-07-04T23:30:39.924Z,64.52
2023-07-04T23:33:07.970Z,64.17
2023-07-04T23:35:36.334Z,64.13
2023-07-04T23:38:04.769Z,63.69
2023-07-04T23:40:34.713Z,64.33
2023-07-04T23:43:02.687Z,65.01
2023-07-04T23:45:30.710Z,64.18
2023-07-04T23:47:58.909Z,64.40
2023-07-04T23:50:27.912Z,64.82
2023-07-04T23:52:55.867Z,64.42
2023-07-04T23:55:23.906Z,64.70
2023-07-04T23:57:53.389Z,64.93
